Time;durP1;ratioP1;P1;durP2;ratioP2;P2;SDS_P1;SDS_P2;PMS_P1;PMS_P2;Temp;Humidity;BMP_temperature;BMP_pressure;BME280_temperature;BME280_humidity;BME280_pressure;Samples;Min_cycle;Max_cycle;Signal;HPM_P1;HPM_P2
2022/01/19 00:01:35;;;;;;;9.48;4.22;;;;;;;1.97;84.00;100372.22;5050335;28;20436;-74
2022/01/19 00:04:00;;;;;;;6.78;4.05;;;;;;;1.79;85.45;100386.03;5046568;28;20074;-74
2022/01/19 00:06:26;;;;;;;8.98;4.68;;;;;;;1.60;86.26;100367.75;5030221;28;20546;-74
2022/01/19 00:08:52;;;;;;;8.20;4.57;;;;;;;1.81;85.47;100371.59;5031486;28;20100;-74
2022/01/19 00:11:17;;;;;;;6.97;4.25;;;;;;;1.68;85.62;100336.94;5046976;28;20559;-74
2022/01/19 00:13:43;;;;;;;6.72;4.03;;;;;;;1.75;86.01;100345.34;5050427;28;20029;-74
2022/01/19 00:16:08;;;;;;;7.55;4.65;;;;;;;1.61;86.43;100318.81;5048771;28;20625;-74
2022/01/19 00:18:34;;;;;;;12.25;5.18;;;;;;;1.50;87.58;100324.91;5032629;28;20052;-74
2022/01/19 00:21:00;;;;;;;10.27;4.70;;;;;;;1.45;88.55;100333.22;5036075;28;20033;-75
2022/01/19 00:23:25;;;;;;;9.15;5.20;;;;;;;1.15;89.14;100312.19;5039644;28;20395;-73
2022/01/19 00:25:52;;;;;;;7.97;4.85;;;;;;;0.95;90.41;100308.25;5040682;28;20092;-73
2022/01/19 00:28:18;;;;;;;9.15;5.25;;;;;;;0.93;91.14;100320.81;5044822;28;20021;-73
2022/01/19 00:30:44;;;;;;;11.13;5.78;;;;;;;0.79;91.92;100324.44;5058761;28;20032;-74
2022/01/19 00:33:10;;;;;;;11.10;5.55;;;;;;;0.68;92.73;100345.59;5049517;28;20047;-74
2022/01/19 00:35:36;;;;;;;12.32;5.28;;;;;;;0.72;93.62;100341.78;5040472;28;20480;-74
2022/01/19 00:38:03;;;;;;;9.80;5.50;;;;;;;0.68;94.00;100360.72;5038760;28;20049;-74
2022/01/19 00:40:28;;;;;;;11.15;5.72;;;;;;;0.61;93.13;100328.31;5038928;28;20131;-74
2022/01/19 00:42:53;;;;;;;9.95;5.40;;;;;;;0.65;93.84;100343.13;5037739;28;20060;-74
2022/01/19 00:45:19;;;;;;;15.32;6.28;;;;;;;0.60;93.90;100346.13;5040859;28;20025;-74
2022/01/19 00:47:45;;;;;;;9.65;6.28;;;;;;;0.38;94.54;100333.34;5051316;28;20117;-74
2022/01/19 00:50:15;;;;;;;9.43;5.45;;;;;;;0.43;95.16;100341.03;5058087;28;20202;-75
2022/01/19 00:52:40;;;;;;;14.15;6.50;;;;;;;0.52;95.20;100340.41;5057401;28;20048;-74
2022/01/19 00:55:08;;;;;;;9.95;5.50;;;;;;;0.62;94.98;100354.84;5054435;28;20025;-74
2022/01/19 00:57:35;;;;;;;11.20;5.85;;;;;;;0.42;95.47;100356.16;5051083;28;20028;-75
2022/01/19 01:00:00;;;;;;;11.63;6.30;;;;;;;0.38;96.50;100348.47;5056864;28;20391;-75
2022/01/19 01:02:26;;;;;;;9.82;5.38;;;;;;;0.19;96.50;100352.34;5036803;28;20025;-74
2022/01/19 01:04:51;;;;;;;10.27;5.30;;;;;;;0.14;97.17;100369.56;5055096;28;20104;-75
2022/01/19 01:07:17;;;;;;;11.80;5.95;;;;;;;-0.04;99.04;100353.81;5054679;28;20128;-75
2022/01/19 01:09:42;;;;;;;12.65;6.78;;;;;;;-0.20;100.00;100330.94;5045830;28;20036;-74
2022/01/19 01:12:21;;;;;;;15.82;7.55;;;;;;;-0.27;100.00;100357.91;5047428;28;20026;-74
2022/01/19 01:20:15;;;;;;;9.52;5.68;;;;;;;-0.39;100.00;100317.94;5038385;28;20624;-74
2022/01/19 01:22:41;;;;;;;11.20;5.53;;;;;;;-0.27;100.00;100338.44;5036589;28;20112;-74
2022/01/19 01:25:07;;;;;;;10.60;5.07;;;;;;;-0.08;100.00;100314.19;5039182;28;20025;-74
2022/01/19 01:27:33;;;;;;;8.80;5.28;;;;;;;-0.36;100.00;100291.19;5038743;28;20017;-74
2022/01/19 01:29:59;;;;;;;10.88;5.45;;;;;;;-0.43;100.00;100311.97;5047596;28;20036;-74
2022/01/19 01:32:24;;;;;;;9.35;5.15;;;;;;;-0.74;100.00;100281.97;5050744;28;20032;-74
2022/01/19 01:34:53;;;;;;;9.73;5.57;;;;;;;-0.92;100.00;100256.53;5046343;28;20025;-74
2022/01/19 01:37:19;;;;;;;9.87;5.70;;;;;;;-0.77;100.00;100306.06;5045728;28;20029;-74
2022/01/19 01:39:45;;;;;;;10.38;6.18;;;;;;;-0.81;100.00;100316.97;5061449;28;20025;-74
2022/01/19 01:42:13;;;;;;;13.85;6.38;;;;;;;-1.00;100.00;100288.88;5046495;28;20032;-74
2022/01/19 01:44:41;;;;;;;12.70;6.05;;;;;;;-0.84;100.00;100333.97;5067765;28;20025;-74
2022/01/19 01:47:07;;;;;;;11.23;6.40;;;;;;;-0.84;100.00;100333.97;5068053;28;20017;-74
2022/01/19 01:54:54;;;;;;;16.13;6.15;;;;;;;-0.81;100.00;100317.84;5056795;28;20067;-73
2022/01/19 01:57:20;;;;;;;9.43;5.82;;;;;;;-0.96;100.00;100310.81;5062095;28;20045;-74
2022/01/19 01:59:45;;;;;;;9.85;5.97;;;;;;;-1.06;100.00;100302.53;5077839;28;20017;-75
2022/01/19 02:02:11;;;;;;;13.10;6.75;;;;;;;-1.06;100.00;100315.81;5069946;28;20029;-74
2022/01/19 02:04:40;;;;;;;15.30;6.80;;;;;;;-1.36;100.00;100279.53;5079927;28;20021;-74
2022/01/19 02:09:55;;;;;;;11.20;6.40;;;;;;;-1.26;100.00;100293.09;5062283;28;20111;-74
2022/01/19 02:26:11;;;;;;;12.05;6.25;;;;;;;-1.19;100.00;100270.56;5054123;28;20114;-75
2022/01/19 02:42:08;;;;;;;12.63;6.47;;;;;;;-1.63;100.00;100238.69;5055348;28;20048;-74
2022/01/19 02:49:45;;;;;;;14.25;6.40;;;;;;;-1.85;100.00;100231.16;5042339;28;20030;-73
2022/01/19 02:52:11;;;;;;;14.05;6.78;;;;;;;-1.85;100.00;100231.16;5038322;28;20555;-75
2022/01/19 02:54:36;;;;;;;13.57;6.30;;;;;;;-1.93;100.00;100210.38;5051197;28;20057;-74
2022/01/19 02:57:03;;;;;;;12.48;7.00;;;;;;;-1.59;100.00;100211.88;5067530;22;20037;-73
2022/01/19 02:59:46;;;;;;;11.88;6.97;;;;;;;-1.77;100.00;100182.00;5031884;28;20033;-72
2022/01/19 03:10:23;;;;;;;14.23;6.38;;;;;;;-2.02;100.00;100185.25;5024961;28;20086;-72
2022/01/19 03:12:48;;;;;;;10.32;6.30;;;;;;;-2.02;100.00;100195.84;5032602;28;20467;-72
2022/01/19 03:15:14;;;;;;;12.27;6.43;;;;;;;-1.98;100.00;100191.22;5029875;28;20044;-72
2022/01/19 03:17:40;;;;;;;12.80;6.18;;;;;;;-2.12;100.00;100168.16;5029808;28;20442;-71
2022/01/19 03:20:07;;;;;;;11.95;6.55;;;;;;;-1.85;100.00;100186.06;5032796;28;20033;-71
2022/01/19 03:25:16;;;;;;;14.30;6.47;;;;;;;-1.79;100.00;100156.50;5030252;28;20098;-73
2022/01/19 03:27:47;;;;;;;19.00;7.07;;;;;;;-1.81;100.00;100140.69;5033656;28;20045;-72
2022/01/19 03:30:14;;;;;;;17.08;6.63;;;;;;;-2.01;100.00;100112.69;5031940;28;20071;-72
2022/01/19 03:32:39;;;;;;;15.15;7.20;;;;;;;-1.76;100.00;100135.09;5029105;28;20037;-72
2022/01/19 03:35:05;;;;;;;14.25;6.65;;;;;;;-1.89;100.00;100131.47;5014865;28;20029;-70
2022/01/19 03:37:30;;;;;;;16.73;6.95;;;;;;;-1.94;100.00;100139.69;5023551;28;20044;-71
2022/01/19 03:39:56;;;;;;;22.00;7.38;;;;;;;-1.96;100.00;100135.44;5032913;28;20533;-71
2022/01/19 03:42:21;;;;;;;18.50;8.02;;;;;;;-1.88;100.00;100133.19;5023799;28;20044;-73
2022/01/19 03:44:47;;;;;;;16.35;6.85;;;;;;;-2.05;100.00;100119.13;5014186;28;20034;-71
2022/01/19 03:47:12;;;;;;;14.93;7.20;;;;;;;-2.20;100.00;100101.47;5039324;28;20092;-71
2022/01/19 03:49:37;;;;;;;14.70;6.85;;;;;;;-2.25;100.00;100103.56;5027758;28;20040;-71
2022/01/19 03:52:05;;;;;;;15.63;7.40;;;;;;;-2.30;100.00;100092.38;5022988;28;20107;-71
2022/01/19 03:54:41;;;;;;;17.52;6.22;;;;;;;-2.11;100.00;100121.28;5023710;28;20033;-71
2022/01/19 03:57:07;;;;;;;17.38;7.43;;;;;;;-2.10;100.00;100128.28;5028942;28;20026;-71
2022/01/19 03:59:32;;;;;;;13.88;6.80;;;;;;;-2.10;100.00;100121.19;5014745;28;20045;-71
2022/01/19 04:01:59;;;;;;;14.73;7.30;;;;;;;-2.17;100.00;100133.13;5029657;28;20120;-71
2022/01/19 04:04:34;;;;;;;13.13;6.63;;;;;;;-2.25;100.00;100119.47;5032682;28;20025;-71
2022/01/19 04:07:10;;;;;;;15.20;7.18;;;;;;;-2.38;100.00;100116.66;5024292;28;20061;-71
2022/01/19 04:09:37;;;;;;;14.25;7.55;;;;;;;-2.45;100.00;100117.94;5031774;28;20036;-71
2022/01/19 04:12:04;;;;;;;17.15;8.07;;;;;;;-2.51;100.00;100094.47;5033405;28;20540;-71
2022/01/19 04:14:29;;;;;;;21.02;8.73;;;;;;;-2.22;100.00;100082.16;5032130;28;20104;-76
2022/01/19 04:16:58;;;;;;;37.97;15.43;;;;;;;-2.00;100.00;100061.34;5026442;28;20060;-73
2022/01/19 04:19:31;;;;;;;58.42;17.67;;;;;;;-1.78;100.00;100070.69;5031410;28;20056;-72
2022/01/19 04:21:59;;;;;;;71.13;23.40;;;;;;;-1.84;100.00;100071.88;5032977;28;20064;-73
2022/01/19 04:24:26;;;;;;;66.22;21.27;;;;;;;-2.07;100.00;100075.94;5029138;28;20033;-73
2022/01/19 04:29:36;;;;;;;50.25;18.00;;;;;;;-2.12;100.00;100055.94;5033087;28;20040;-74
2022/01/19 04:32:09;;;;;;;64.32;21.95;;;;;;;-2.29;100.00;100047.19;5028645;28;20018;-74
2022/01/19 04:34:37;;;;;;;42.10;16.50;;;;;;;-2.22;100.00;100018.53;5031189;28;20025;-73
2022/01/19 05:06:26;;;;;;;26.92;9.70;;;;;;;-2.67;100.00;99991.19;5017559;28;20454;-76
2022/01/19 05:14:00;;;;;;;20.33;10.00;;;;;;;-2.59;100.00;99983.63;5023714;28;20505;-73
2022/01/19 05:16:26;;;;;;;18.85;8.65;;;;;;;-2.51;100.00;99999.94;5034029;28;20021;-72
2022/01/19 05:18:52;;;;;;;18.25;8.38;;;;;;;-2.43;100.00;100002.97;5031536;28;20033;-73
2022/01/19 05:21:18;;;;;;;16.85;8.63;;;;;;;-2.50;100.00;99977.78;5027047;28;20482;-72
2022/01/19 05:23:43;;;;;;;25.33;9.55;;;;;;;-2.44;100.00;99995.09;5034814;28;20035;-70
2022/01/19 05:26:09;;;;;;;22.05;10.55;;;;;;;-2.54;100.00;99962.16;5028014;28;20716;-71
2022/01/19 05:28:34;;;;;;;21.80;10.27;;;;;;;-2.26;100.00;100009.06;5023590;28;20014;-71
2022/01/19 05:31:00;;;;;;;21.35;10.15;;;;;;;-2.67;100.00;99947.00;5024558;28;20022;-70
2022/01/19 05:33:25;;;;;;;23.52;10.27;;;;;;;-2.25;100.00;100002.81;5032815;28;20025;-70
2022/01/19 05:35:51;;;;;;;23.45;10.70;;;;;;;-2.32;100.00;99989.06;5022022;28;20121;-71
2022/01/19 05:38:16;;;;;;;22.17;10.52;;;;;;;-2.49;100.00;99966.25;5028614;28;20487;-70
2022/01/19 05:40:42;;;;;;;22.95;10.20;;;;;;;-2.47;100.00;99959.03;5027759;28;20087;-70
2022/01/19 05:43:07;;;;;;;17.00;9.18;;;;;;;-2.44;100.00;99964.19;5029399;28;20075;-71
2022/01/19 05:45:33;;;;;;;19.63;9.52;;;;;;;-2.26;100.00;99986.03;5032282;28;20026;-70
2022/01/19 05:47:58;;;;;;;20.30;8.85;;;;;;;-2.30;100.00;99967.78;5024200;28;20034;-70
2022/01/19 05:50:24;;;;;;;21.63;8.73;;;;;;;-2.38;100.00;99960.31;5026678;28;20084;-70
2022/01/19 05:52:50;;;;;;;20.65;8.68;;;;;;;-2.46;100.00;99951.97;5027062;28;20498;-69
2022/01/19 05:55:15;;;;;;;18.40;8.80;;;;;;;-2.31;100.00;99984.63;5024399;28;20049;-70
2022/01/19 05:57:40;;;;;;;19.17;8.65;;;;;;;-2.35;100.00;99964.56;5029903;28;20040;-70
2022/01/19 06:00:06;;;;;;;19.40;9.52;;;;;;;-2.40;100.00;99956.03;5025712;28;20116;-69
2022/01/19 06:02:32;;;;;;;21.23;8.85;;;;;;;-2.32;100.00;99959.06;5026821;28;20037;-70
2022/01/19 06:04:57;;;;;;;18.20;8.45;;;;;;;-2.12;100.00;99956.06;5022514;28;20112;-70
2022/01/19 06:07:28;;;;;;;16.73;7.45;;;;;;;-2.22;100.00;99925.75;5030879;28;20483;-71
2022/01/19 06:10:03;;;;;;;15.88;6.85;;;;;;;-2.12;100.00;99936.63;5029290;28;20025;-70
2022/01/19 06:12:29;;;;;;;13.88;6.78;;;;;;;-1.83;100.00;99951.59;5028260;28;20025;-70
2022/01/19 06:14:54;;;;;;;16.90;7.05;;;;;;;-1.78;100.00;99962.78;5028562;28;20033;-71
2022/01/19 06:17:19;;;;;;;12.27;6.30;;;;;;;-1.69;100.00;99950.72;5031215;28;20391;-75
2022/01/19 06:19:47;;;;;;;18.38;6.70;;;;;;;-1.53;100.00;99957.69;5031207;28;20116;-73
2022/01/19 06:22:14;;;;;;;13.88;6.93;;;;;;;-1.35;100.00;99941.44;5035479;28;20017;-77
2022/01/19 06:24:40;;;;;;;16.35;6.30;;;;;;;-1.19;100.00;99940.44;5038931;28;20021;-81
2022/01/19 06:27:05;;;;;;;14.57;6.00;;;;;;;-1.18;100.00;99936.81;5032481;28;20115;-79
2022/01/19 06:29:30;;;;;;;18.90;6.53;;;;;;;-1.13;100.00;99956.84;5016842;28;20131;-79
2022/01/19 06:31:56;;;;;;;16.42;7.53;;;;;;;-1.23;100.00;99963.69;5021815;28;20033;-80
2022/01/19 06:34:21;;;;;;;14.70;7.07;;;;;;;-1.36;100.00;99966.28;5018469;28;20468;-74
2022/01/19 06:36:51;;;;;;;16.70;7.10;;;;;;;-1.71;100.00;99920.75;5041146;28;20032;-76
2022/01/19 06:39:16;;;;;;;14.18;6.95;;;;;;;-1.54;100.00;99964.81;5039449;28;20018;-73
2022/01/19 06:41:42;;;;;;;17.65;8.70;;;;;;;-1.74;100.00;99944.84;5040246;28;20028;-78
2022/01/19 06:44:07;;;;;;;17.45;8.23;;;;;;;-1.90;100.00;99920.25;5030269;28;20081;-77
2022/01/19 06:46:32;;;;;;;15.02;7.05;;;;;;;-1.75;100.00;99953.75;5018418;28;20018;-79
2022/01/19 06:49:13;;;;;;;12.38;7.15;;;;;;;-1.65;100.00;99964.63;5052522;28;20006;-83
2022/01/19 06:51:38;;;;;;;16.38;7.80;;;;;;;-1.98;100.00;99929.53;5038087;28;20092;-82
2022/01/19 06:54:06;;;;;;;19.23;7.57;;;;;;;-2.05;100.00;99930.84;5030086;28;20026;-72
2022/01/19 06:56:36;;;;;;;18.40;7.90;;;;;;;-2.13;100.00;99932.28;5038624;28;20091;-80
2022/01/19 06:59:08;;;;;;;17.63;7.20;;;;;;;-2.09;100.00;99950.56;5027111;28;20113;-80
2022/01/19 07:01:34;;;;;;;22.80;7.90;;;;;;;-2.26;100.00;99900.38;5026064;28;20510;-77
2022/01/19 07:04:01;;;;;;;20.73;8.27;;;;;;;-1.90;100.00;99954.72;5023765;28;20022;-79
2022/01/19 07:06:27;;;;;;;18.33;8.57;;;;;;;-1.90;100.00;99954.72;5033013;28;20018;-74
2022/01/19 07:08:52;;;;;;;24.15;8.55;;;;;;;-1.91;100.00;99950.34;5025516;28;20025;-76
2022/01/19 07:11:17;;;;;;;21.58;10.93;;;;;;;-2.16;100.00;99940.44;5036301;28;20403;-76
2022/01/19 07:13:43;;;;;;;25.75;10.70;;;;;;;-2.28;100.00;99924.34;5044820;28;20033;-74
2022/01/19 07:16:08;;;;;;;18.65;9.05;;;;;;;-2.26;100.00;99910.97;5047899;28;20025;-73
2022/01/19 07:18:33;;;;;;;22.63;9.05;;;;;;;-2.10;100.00;99927.63;5035521;28;20499;-79
2022/01/19 07:20:59;;;;;;;27.70;8.75;;;;;;;-1.90;100.00;99942.31;5023375;28;20101;-79
2022/01/19 07:23:25;;;;;;;19.13;8.77;;;;;;;-1.98;100.00;99928.69;5026961;28;20028;-78
2022/01/19 07:25:50;;;;;;;19.13;9.70;;;;;;;-2.04;100.00;99926.41;5029782;28;20500;-79
2022/01/19 07:28:15;;;;;;;19.40;8.73;;;;;;;-2.01;100.00;99927.06;5036247;28;20025;-70
2022/01/19 07:30:41;;;;;;;21.67;10.10;;;;;;;-1.81;100.00;99960.31;5023395;28;20032;-71
2022/01/19 07:33:06;;;;;;;28.65;10.50;;;;;;;-1.94;100.00;99929.31;5030642;28;20029;-72
2022/01/19 07:35:32;;;;;;;21.60;9.80;;;;;;;-1.88;100.00;99931.63;5025881;28;20124;-70
2022/01/19 07:37:57;;;;;;;21.13;9.43;;;;;;;-1.76;100.00;99930.81;5025157;28;20065;-73
2022/01/19 07:40:22;;;;;;;21.40;8.95;;;;;;;-1.74;100.00;99918.31;5030530;28;20471;-72
2022/01/19 07:42:49;;;;;;;22.02;9.13;;;;;;;-1.33;100.00;99933.38;5030817;28;20036;-73
2022/01/19 07:45:15;;;;;;;25.50;11.15;;;;;;;-1.14;100.00;99923.25;5028077;28;20037;-78
2022/01/19 07:47:41;;;;;;;28.17;11.95;;;;;;;-0.93;100.00;99840.44;5022902;28;20040;-78
2022/01/19 07:50:07;;;;;;;23.40;10.55;;;;;;;0.60;100.00;99927.13;5020009;28;20035;-73
2022/01/19 07:52:32;;;;;;;26.20;9.63;;;;;;;1.38;90.98;99901.78;5026194;28;20168;-79
2022/01/19 07:54:58;;;;;;;22.63;9.70;;;;;;;2.23;85.88;99874.63;5028501;28;20467;-69
2022/01/19 07:57:23;;;;;;;13.98;7.57;;;;;;;2.85;80.94;99914.09;5028631;28;20441;-70
2022/01/19 07:59:48;;;;;;;16.90;7.45;;;;;;;3.68;79.20;99917.81;5026580;28;20026;-69
2022/01/19 08:02:14;;;;;;;14.32;7.15;;;;;;;3.88;74.10;99908.06;5023543;28;20022;-70
2022/01/19 08:04:40;;;;;;;14.60;7.05;;;;;;;5.16;67.72;99878.72;5026135;28;20041;-75
2022/01/19 08:07:06;;;;;;;16.25;6.38;;;;;;;6.23;62.66;99879.28;5021367;28;20019;-70
2022/01/19 08:09:31;;;;;;;14.45;6.85;;;;;;;6.25;61.83;99874.63;5019292;28;20462;-73
2022/01/19 08:11:57;;;;;;;14.38;7.63;;;;;;;7.05;60.13;99885.56;5019266;28;20037;-73
2022/01/19 08:14:24;;;;;;;12.13;6.38;;;;;;;7.41;57.19;99858.59;5022168;28;20053;-73
2022/01/19 08:16:51;;;;;;;15.07;6.80;;;;;;;7.46;56.51;99877.81;5022111;28;20064;-75
2022/01/19 08:19:16;;;;;;;12.05;6.47;;;;;;;7.66;56.15;99873.09;5043975;28;20467;-72
2022/01/19 08:21:41;;;;;;;15.93;7.15;;;;;;;8.24;54.52;99860.78;5030724;28;20060;-72
2022/01/19 08:24:07;;;;;;;14.60;7.00;;;;;;;8.53;53.38;99871.19;5025552;28;20036;-68
2022/01/19 08:26:32;;;;;;;16.35;6.97;;;;;;;9.10;51.08;99847.00;5021013;28;20029;-68
2022/01/19 08:28:57;;;;;;;13.55;6.63;;;;;;;10.06;49.35;99848.88;5031617;28;20026;-70
2022/01/19 08:31:23;;;;;;;12.63;6.53;;;;;;;10.40;47.87;99871.25;5030130;28;20044;-70
2022/01/19 08:33:48;;;;;;;16.80;6.65;;;;;;;10.31;49.23;99878.56;5025064;28;20092;-69
2022/01/19 08:36:14;;;;;;;10.48;6.35;;;;;;;11.17;48.32;99874.84;5029908;28;20527;-72
2022/01/19 08:38:42;;;;;;;14.65;6.50;;;;;;;11.97;45.69;99872.63;5017095;28;20038;-73
2022/01/19 08:41:07;;;;;;;13.00;6.55;;;;;;;12.43;43.43;99875.97;5013298;28;20022;-75
2022/01/19 08:43:32;;;;;;;10.00;6.35;;;;;;;13.00;42.31;99887.94;5015426;28;20045;-73
2022/01/19 08:45:58;;;;;;;11.20;6.88;;;;;;;12.71;43.84;99867.16;5022531;28;20017;-73
2022/01/19 08:48:23;;;;;;;11.85;7.22;;;;;;;12.18;41.99;99886.31;5030562;28;20036;-75
2022/01/19 08:50:49;;;;;;;11.88;7.07;;;;;;;12.78;40.91;99859.91;5028008;28;20079;-70
2022/01/19 08:53:14;;;;;;;12.68;7.55;;;;;;;11.44;43.63;99874.47;5026913;28;20506;-71
2022/01/19 08:55:40;;;;;;;13.25;7.75;;;;;;;11.55;44.02;99888.44;5025121;28;20091;-72
2022/01/19 08:58:07;;;;;;;13.65;7.82;;;;;;;10.61;45.44;99859.81;5045390;22;20040;-72
2022/01/19 09:00:33;;;;;;;15.35;7.30;;;;;;;11.06;44.11;99883.41;5051711;28;20032;-73
2022/01/19 09:02:59;;;;;;;13.43;6.93;;;;;;;11.63;44.87;99880.22;5051565;28;20036;-74
2022/01/19 09:05:24;;;;;;;11.13;6.88;;;;;;;11.75;42.68;99860.78;5055006;28;20025;-72
2022/01/19 09:07:50;;;;;;;13.57;7.43;;;;;;;11.98;43.36;99879.75;5054748;28;20580;-72
2022/01/19 09:10:16;;;;;;;12.68;7.60;;;;;;;11.16;43.50;99840.66;5054869;28;20017;-71
2022/01/19 09:12:42;;;;;;;12.52;7.85;;;;;;;11.86;42.98;99884.78;5049843;28;20061;-71
2022/01/19 09:15:09;;;;;;;14.60;7.57;;;;;;;12.76;41.41;99875.56;5052736;28;20028;-73
2022/01/19 09:17:35;;;;;;;13.82;7.70;;;;;;;12.39;43.32;99874.69;5045266;28;20029;-70
2022/01/19 09:20:05;;;;;;;17.20;8.65;;;;;;;12.16;41.76;99855.81;5050798;28;20443;-72
2022/01/19 09:22:30;;;;;;;14.07;7.28;;;;;;;11.31;42.98;99840.69;5040181;28;20624;-73
2022/01/19 09:24:55;;;;;;;14.52;8.32;;;;;;;10.74;44.86;99858.22;5048731;28;20035;-74
2022/01/19 09:27:21;;;;;;;14.85;7.72;;;;;;;11.41;43.63;99876.50;5046465;28;20032;-73
2022/01/19 09:29:47;;;;;;;12.73;7.50;;;;;;;11.87;42.53;99843.09;5048271;28;20099;-74
2022/01/19 09:32:13;;;;;;;16.35;8.52;;;;;;;11.63;43.06;99842.28;5035393;28;20455;-71
2022/01/19 09:34:42;;;;;;;13.30;8.05;;;;;;;12.48;41.68;99857.25;5035004;28;20049;-72
2022/01/19 09:37:08;;;;;;;12.32;7.15;;;;;;;12.28;42.49;99845.31;5042604;28;20017;-70
2022/01/19 09:39:35;;;;;;;10.57;6.82;;;;;;;12.06;41.96;99864.22;5052203;28;20537;-71
2022/01/19 09:42:01;;;;;;;15.05;8.15;;;;;;;12.74;41.58;99864.03;5041012;28;20040;-72
2022/01/19 09:44:31;;;;;;;13.88;8.35;;;;;;;11.13;43.45;99804.97;5050889;28;20029;-74
2022/01/19 09:46:57;;;;;;;16.50;8.18;;;;;;;11.76;43.88;99857.91;5054230;28;20458;-73
2022/01/19 09:49:22;;;;;;;13.70;7.50;;;;;;;12.56;41.08;99864.44;5049111;28;20078;-72
2022/01/19 09:51:50;;;;;;;14.70;8.63;;;;;;;12.30;41.85;99845.13;5049406;28;20024;-72
2022/01/19 09:54:19;;;;;;;13.45;7.63;;;;;;;12.20;41.63;99850.84;5046807;28;20401;-74
2022/01/19 09:56:45;;;;;;;11.80;7.35;;;;;;;13.17;40.70;99817.88;5042471;28;20475;-72
2022/01/19 09:59:13;;;;;;;14.30;8.07;;;;;;;12.16;41.17;99827.84;5051926;28;20114;-73
2022/01/19 10:01:57;;;;;;;16.55;8.13;;;;;;;12.20;41.61;99804.72;5041219;28;20038;-73
2022/01/19 10:04:29;;;;;;;14.60;8.30;;;;;;;11.68;42.65;99811.88;5051372;28;20111;-73
2022/01/19 10:07:13;;;;;;;12.55;8.40;;;;;;;10.78;44.80;99817.25;5053396;28;20048;-72
2022/01/19 10:09:48;;;;;;;15.90;8.60;;;;;;;11.26;44.10;99812.47;5045297;28;20497;-71
2022/01/19 10:18:28;;;;;;;17.75;8.82;;;;;;;11.67;43.48;99790.41;5031055;28;20036;-70
2022/01/19 10:21:16;;;;;;;15.50;8.45;;;;;;;11.59;43.91;99794.88;5052175;28;20037;-70
2022/01/19 10:23:48;;;;;;;16.67;8.60;;;;;;;11.88;43.12;99770.72;5043463;28;20407;-70
2022/01/19 10:26:22;;;;;;;15.75;8.98;;;;;;;12.28;42.21;99788.31;5035024;28;20108;-73
2022/01/19 10:29:00;;;;;;;15.52;8.45;;;;;;;11.80;42.66;99764.31;5035131;28;20576;-69
2022/01/19 10:31:27;;;;;;;13.75;8.30;;;;;;;12.68;41.81;99761.63;5050259;28;20083;-74
2022/01/19 10:34:20;;;;;;;13.43;8.18;;;;;;;12.52;42.10;99776.28;5046436;28;20025;-73
2022/01/19 10:36:46;;;;;;;17.88;8.65;;;;;;;13.02;41.34;99773.63;5046501;28;20100;-76
2022/01/19 10:39:12;;;;;;;16.98;8.88;;;;;;;12.96;40.60;99766.28;5047176;28;20024;-73
2022/01/19 10:41:57;;;;;;;13.50;8.40;;;;;;;12.62;40.76;99748.81;5048546;28;20040;-73
2022/01/19 10:44:41;;;;;;;13.98;8.88;;;;;;;14.17;39.19;99759.59;5044902;28;20032;-71
2022/01/19 10:47:07;;;;;;;12.98;8.20;;;;;;;15.73;35.96;99753.88;5045856;28;20020;-75
2022/01/19 10:49:54;;;;;;;13.43;7.97;;;;;;;15.61;36.46;99722.81;5047399;28;20029;-74
2022/01/19 10:52:31;;;;;;;12.20;8.10;;;;;;;14.80;37.03;99750.34;5045061;28;20036;-75
2022/01/19 10:54:59;;;;;;;13.00;8.40;;;;;;;14.57;38.85;99753.47;5044070;28;20028;-70
2022/01/19 10:57:26;;;;;;;11.88;7.45;;;;;;;15.03;36.45;99726.25;5042593;28;20016;-74
2022/01/19 10:59:53;;;;;;;12.63;8.07;;;;;;;15.19;36.46;99727.69;5050395;28;20370;-71
2022/01/19 11:02:19;;;;;;;13.50;7.38;;;;;;;15.34;36.66;99722.88;5046030;28;20043;-72
2022/01/19 11:04:45;;;;;;;11.93;7.07;;;;;;;15.38;36.72;99739.66;5046039;28;20024;-72
2022/01/19 11:07:22;;;;;;;13.13;8.25;;;;;;;13.86;38.80;99732.00;5046464;28;20434;-71
2022/01/19 11:09:59;;;;;;;10.20;6.90;;;;;;;15.75;36.62;99729.13;5042345;28;20093;-72
2022/01/19 11:12:32;;;;;;;11.07;7.28;;;;;;;16.57;35.08;99713.00;5049407;28;20442;-72
2022/01/19 11:14:58;;;;;;;9.68;6.70;;;;;;;14.76;36.92;99713.69;5047527;28;20079;-72
2022/01/19 11:17:23;;;;;;;12.27;7.38;;;;;;;15.54;36.16;99711.94;5044044;28;20025;-71
2022/01/19 11:19:49;;;;;;;9.00;6.72;;;;;;;15.61;36.55;99724.72;5051932;28;20753;-72
2022/01/19 11:22:36;;;;;;;13.13;7.30;;;;;;;15.01;37.22;99703.84;5048507;28;20029;-71
2022/01/19 11:25:07;;;;;;;12.75;7.13;;;;;;;16.13;36.34;99721.00;5041265;28;20390;-70
2022/01/19 11:27:42;;;;;;;10.77;6.78;;;;;;;15.75;37.01;99720.94;5036047;28;20043;-68
2022/01/19 11:30:09;;;;;;;12.68;7.35;;;;;;;15.76;36.84;99692.59;5045170;28;20021;-70
2022/01/19 11:32:35;;;;;;;10.40;6.63;;;;;;;16.25;36.21;99696.59;5031819;28;20053;-69
2022/01/19 11:35:02;;;;;;;14.23;6.93;;;;;;;15.41;36.63;99703.78;5050382;28;20734;-70
2022/01/19 11:37:43;;;;;;;8.95;6.82;;;;;;;15.93;35.77;99695.69;5049232;28;20642;-70
2022/01/19 11:40:22;;;;;;;10.13;6.88;;;;;;;15.30;37.06;99705.28;5043158;28;20104;-70
2022/01/19 11:42:47;;;;;;;;;;;;;;;12.06;42.32;99706.91;5049575;28;20446;-69
2022/01/19 11:45:47;;;;;;;10.98;6.85;;;;;;;12.75;41.78;99700.06;5049578;28;19947;-70
2022/01/19 11:48:26;;;;;;;10.75;6.20;;;;;;;14.59;38.90;99696.88;4983419;28;20049;-70
2022/01/19 11:50:53;;;;;;;11.10;6.77;;;;;;;15.59;37.27;99684.03;5039782;28;20045;-70
2022/01/19 11:53:20;;;;;;;12.15;6.70;;;;;;;14.30;38.79;99671.66;5049677;28;20036;-69
2022/01/19 11:56:08;;;;;;;16.58;7.93;;;;;;;13.96;39.01;99676.19;5041435;28;20033;-70
2022/01/19 11:58:34;;;;;;;13.40;8.05;;;;;;;14.91;38.15;99687.06;5038611;28;20704;-70
2022/01/19 12:00:59;;;;;;;12.52;7.20;;;;;;;15.58;36.48;99671.41;5048692;28;20036;-72
2022/01/19 12:03:35;;;;;;;11.77;6.85;;;;;;;14.46;37.79;99659.53;5042564;28;20145;-76
2022/01/19 12:06:00;;;;;;;11.55;6.57;;;;;;;13.80;40.63;99658.31;5046094;28;20029;-74
2022/01/19 12:08:32;;;;;;;10.77;6.97;;;;;;;11.61;43.64;99668.16;5033389;28;20040;-70
2022/01/19 12:11:14;;;;;;;11.02;6.65;;;;;;;13.42;41.79;99652.53;5046799;28;20040;-71
2022/01/19 12:14:00;;;;;;;7.85;6.10;;;;;;;13.29;40.84;99656.00;5059236;28;20095;-73
2022/01/19 12:18:57;;;;;;;11.63;6.57;;;;;;;15.13;38.61;99649.50;5036096;28;20632;-72
2022/01/19 12:21:29;;;;;;;10.57;6.00;;;;;;;16.27;35.78;99639.88;5038523;28;20025;-69
2022/01/19 12:23:54;;;;;;;13.75;6.43;;;;;;;13.67;40.47;99644.69;5048835;28;20028;-65
2022/01/19 12:26:19;;;;;;;10.10;6.50;;;;;;;12.48;43.16;99637.41;5038579;28;20032;-68
2022/01/19 12:28:47;;;;;;;10.63;6.40;;;;;;;13.07;42.73;99635.34;5039092;28;20052;-69
2022/01/19 12:31:24;;;;;;;10.38;6.55;;;;;;;13.03;43.09;99639.50;5043677;28;20495;-70
2022/01/19 12:34:04;;;;;;;11.38;6.60;;;;;;;14.54;39.72;99634.03;5042052;28;20037;-71
2022/01/19 12:36:54;;;;;;;9.43;6.25;;;;;;;14.59;38.76;99632.38;5046488;28;20017;-70
2022/01/19 12:39:34;;;;;;;15.68;7.55;;;;;;;14.07;40.14;99617.63;5042531;28;20044;-71
2022/01/19 12:42:05;;;;;;;13.55;7.97;;;;;;;12.11;42.98;99621.41;5035018;28;20048;-71
2022/01/19 12:44:50;;;;;;;11.65;7.30;;;;;;;11.24;45.24;99605.94;5038527;28;20385;-73
2022/01/19 12:47:24;;;;;;;14.43;8.18;;;;;;;10.59;47.61;99623.75;5042334;28;20025;-74
2022/01/19 12:49:51;;;;;;;15.35;8.88;;;;;;;9.85;49.93;99618.84;5053024;28;20060;-69
2022/01/19 12:52:17;;;;;;;13.65;8.52;;;;;;;9.48;50.74;99614.16;5038646;28;20453;-69
2022/01/19 12:54:42;;;;;;;14.82;7.47;;;;;;;7.40;55.36;99585.00;5039654;28;20037;-71
2022/01/19 12:57:13;;;;;;;10.48;6.68;;;;;;;7.27;57.31;99614.25;5042346;28;20024;-71
2022/01/19 12:59:39;;;;;;;12.80;6.35;;;;;;;7.45;57.48;99601.53;5041700;28;20403;-70
2022/01/19 13:02:05;;;;;;;11.00;6.47;;;;;;;7.30;56.96;99581.63;5035906;28;20036;-70
2022/01/19 13:04:32;;;;;;;10.30;5.85;;;;;;;6.54;58.43;99597.53;5041825;28;20029;-71
2022/01/19 13:07:12;;;;;;;14.57;6.20;;;;;;;6.05;59.94;99577.53;5039023;28;20032;-73
2022/01/19 13:12:50;;;;;;;10.75;5.45;;;;;;;6.41;59.51;99580.16;5038759;28;20029;-73